Skip Navigation LinksHome page > Weather > Current weather Skip Navigation Links

Current Weather

Chicago O'Hare Intl, Chicago

For information only: do not use for flight planning or navigation.
Latest weather
Observation time Saturday, November 28, 2015 1:51 PM CST
Local time Saturday, November 28, 2015 2:10 PM CST
Flight conditions Marginal Visual Meteorological Conditions
Wind direction North-Northeast (30°)
Wind speed 15 mph
Wind gusting to 20 mph
Visibility 10 mi.
Sky condition
Ceiling 2,300 ft. broken clouds
Cloud layer broken clouds 2,300 ft.
Cloud layer broken clouds 13,000 ft.
Cloud layer broken clouds 25,000 ft.
Temperature 37°F
Dewpoint 28°F
Altimeter 30.35 in.Hg
Derived measurements
Relative humidity 70%
Wind chill 28°F
Density altitude -1225 ft.
Sea-level pressure 30.37 in.Hg
Automated weather observing station with precipitation discriminator.
METAR KORD 281951Z 03013G17KT 10SM BKN023 BKN130 BKN250 03/M02 A3035 RMK AO2 SLP284 T00281022


Location code

InnerDrive.Weather 4.0.5722.1 Release CLR 4.0.30319.34014
Copyright ©2015 Inner Drive Technology. All rights reserved. Portions Copyright ©1986-2015 David Braverman.

Find weather

Site navigation

Skip Navigation Links

Place info

Page info

PayPal - The safer, easier way to pay online!

Return home.

Copyright ©2015 Inner Drive Technology. Purveyors of fine, hand-crafted computer software. Page printed 2015-11-28T20:10:54 UTC.